createdAt,value
2018-07-07T00:00:32.146Z,57.10
2018-07-07T00:03:00.569Z,57.20
2018-07-07T00:05:28.829Z,57.40
2018-07-07T00:07:57.047Z,57.50
2018-07-07T00:10:25.269Z,57.60
2018-07-07T00:12:53.499Z,58.30
2018-07-07T00:15:22.166Z,57.80
2018-07-07T00:17:50.794Z,57.80
2018-07-07T00:20:19.438Z,57.90
2018-07-07T00:25:18.461Z,58.10
2018-07-07T00:27:47.397Z,58.20
2018-07-07T00:30:15.931Z,58.20
2018-07-07T00:32:44.221Z,58.20
2018-07-07T00:35:12.805Z,58.30
2018-07-07T00:37:41.041Z,58.30
2018-07-07T00:40:10.048Z,58.30
2018-07-07T00:42:38.937Z,58.40
2018-07-07T00:45:07.180Z,58.40
2018-07-07T00:47:35.593Z,58.50
2018-07-07T00:50:04.162Z,58.60
2018-07-07T00:52:32.384Z,58.70
2018-07-07T00:55:00.593Z,58.70
2018-07-07T00:57:28.798Z,58.80
2018-07-07T00:59:57.391Z,58.90
2018-07-07T01:02:25.647Z,58.80
2018-07-07T01:04:54.855Z,58.90
2018-07-07T01:09:52.028Z,59.20
2018-07-07T01:12:20.261Z,59.20
2018-07-07T01:14:48.992Z,59.30
2018-07-07T01:17:17.388Z,59.30
2018-07-07T01:19:45.608Z,59.30
2018-07-07T01:22:14.332Z,59.40
2018-07-07T01:24:43.012Z,59.40
2018-07-07T01:27:11.269Z,59.40
2018-07-07T01:29:40.485Z,59.40
2018-07-07T01:32:08.880Z,59.50
2018-07-07T01:34:37.149Z,59.60
2018-07-07T01:37:05.638Z,59.70
2018-07-07T01:39:34.099Z,59.70
2018-07-07T01:42:02.409Z,59.70
2018-07-07T01:44:30.640Z,59.70
2018-07-07T01:46:58.935Z,59.80
2018-07-07T01:49:27.229Z,60.00
2018-07-07T01:51:55.584Z,60.00
2018-07-07T01:56:51.853Z,59.90
2018-07-07T01:59:20.054Z,60.00
2018-07-07T02:01:48.289Z,59.80
2018-07-07T02:04:17.476Z,59.70
2018-07-07T02:06:45.691Z,59.70
2018-07-07T02:09:13.999Z,59.90
2018-07-07T02:11:42.220Z,60.50
2018-07-07T02:14:10.433Z,59.80
2018-07-07T02:16:38.632Z,59.80
2018-07-07T02:19:06.852Z,59.60
2018-07-07T02:21:35.089Z,59.70
2018-07-07T02:24:03.321Z,59.90
2018-07-07T02:26:31.546Z,60.70
2018-07-07T02:28:59.790Z,59.90
2018-07-07T02:31:28.018Z,59.80
2018-07-07T02:33:56.381Z,59.90
2018-07-07T02:36:24.610Z,60.00
2018-07-07T02:38:52.846Z,60.00
2018-07-07T02:41:21.084Z,60.10
2018-07-07T02:43:49.335Z,60.20
2018-07-07T02:46:17.590Z,60.30
2018-07-07T02:48:45.793Z,60.30
2018-07-07T02:51:14.008Z,60.40
2018-07-07T02:53:42.212Z,60.40
2018-07-07T02:56:10.511Z,60.40
2018-07-07T02:58:38.766Z,60.60
2018-07-07T03:01:07.167Z,60.60
2018-07-07T03:03:35.397Z,60.70
2018-07-07T03:06:03.616Z,60.80
2018-07-07T03:08:32.111Z,60.70
2018-07-07T03:11:00.344Z,60.80
2018-07-07T03:13:28.754Z,60.90
2018-07-07T03:15:56.961Z,61.10
2018-07-07T03:18:25.185Z,61.10
2018-07-07T03:20:53.444Z,61.20
2018-07-07T03:23:21.756Z,61.30
2018-07-07T03:25:49.998Z,61.30
2018-07-07T03:28:18.243Z,61.40
2018-07-07T03:30:46.468Z,62.10
2018-07-07T03:33:14.705Z,61.40
2018-07-07T03:35:42.920Z,61.40
2018-07-07T03:38:11.272Z,61.40
2018-07-07T03:40:39.492Z,61.50
2018-07-07T03:43:07.740Z,61.60
2018-07-07T03:45:36.121Z,61.70
2018-07-07T03:48:04.419Z,61.60
2018-07-07T03:50:32.650Z,61.70
2018-07-07T03:53:00.869Z,61.70
2018-07-07T03:55:29.124Z,61.80
2018-07-07T03:57:57.393Z,61.70
2018-07-07T04:00:25.596Z,61.70
2018-07-07T04:02:53.859Z,61.70
2018-07-07T04:05:22.089Z,61.70
2018-07-07T04:07:50.296Z,61.70
2018-07-07T04:10:18.701Z,61.60
2018-07-07T04:12:46.977Z,61.70
2018-07-07T04:15:15.209Z,61.70
2018-07-07T04:17:43.433Z,61.50
2018-07-07T04:20:11.707Z,61.60
2018-07-07T04:22:39.892Z,61.60
2018-07-07T04:25:08.124Z,61.50
2018-07-07T04:27:36.340Z,62.20
2018-07-07T04:30:04.649Z,61.50
2018-07-07T04:32:32.861Z,61.60
2018-07-07T04:35:01.172Z,61.50
2018-07-07T04:39:57.373Z,61.20
2018-07-07T04:42:25.599Z,61.20
2018-07-07T04:44:53.813Z,61.30
2018-07-07T04:47:22.032Z,61.30
2018-07-07T04:49:50.260Z,61.20
2018-07-07T04:52:18.592Z,61.10
2018-07-07T04:54:46.769Z,61.20
2018-07-07T04:57:14.987Z,61.20
2018-07-07T04:59:43.375Z,61.10
2018-07-07T05:02:11.592Z,61.10
2018-07-07T05:04:39.875Z,61.20
2018-07-07T05:07:08.036Z,61.10
2018-07-07T05:09:36.276Z,61.10
2018-07-07T05:12:04.845Z,60.90
2018-07-07T05:14:33.080Z,60.90
2018-07-07T05:17:01.291Z,60.90
2018-07-07T05:19:29.513Z,60.90
2018-07-07T05:21:57.732Z,60.70
2018-07-07T05:24:25.976Z,60.50
2018-07-07T05:26:54.185Z,60.40
2018-07-07T05:29:22.413Z,61.20
2018-07-07T05:31:50.650Z,60.50
2018-07-07T05:34:18.888Z,60.70
2018-07-07T05:39:15.117Z,60.70
2018-07-07T05:41:43.437Z,60.90
2018-07-07T05:44:11.652Z,60.90
2018-07-07T05:46:39.917Z,60.90
2018-07-07T05:49:08.161Z,60.90
2018-07-07T05:51:36.380Z,60.90
2018-07-07T05:54:04.629Z,61.00
2018-07-07T05:56:32.828Z,61.00
2018-07-07T05:59:01.053Z,61.10
2018-07-07T06:01:29.330Z,61.10
2018-07-07T06:03:57.531Z,61.00
2018-07-07T06:06:25.743Z,61.00
2018-07-07T06:08:54.054Z,61.00
2018-07-07T06:11:22.289Z,61.00
2018-07-07T06:13:50.689Z,60.80
2018-07-07T06:16:18.905Z,60.90
2018-07-07T06:18:47.266Z,60.80
2018-07-07T06:21:15.686Z,60.80
2018-07-07T06:23:43.925Z,60.70
2018-07-07T06:26:12.197Z,60.50
2018-07-07T06:28:40.424Z,60.60
2018-07-07T06:31:08.832Z,60.50
2018-07-07T06:36:05.289Z,60.40
2018-07-07T06:38:33.715Z,60.40
2018-07-07T06:41:01.941Z,60.30
2018-07-07T06:43:30.166Z,60.40
2018-07-07T06:45:58.433Z,60.40
2018-07-07T06:48:26.709Z,60.60
2018-07-07T06:50:54.944Z,60.60
2018-07-07T06:53:23.170Z,60.60
2018-07-07T06:55:51.385Z,60.50
2018-07-07T07:00:47.625Z,60.20
2018-07-07T07:03:16.273Z,60.00
2018-07-07T07:05:44.480Z,59.80
2018-07-07T07:08:12.707Z,59.60
2018-07-07T07:10:40.910Z,59.30
2018-07-07T07:13:09.164Z,59.20
2018-07-07T07:15:37.444Z,59.10
2018-07-07T07:18:05.725Z,59.10
2018-07-07T07:20:33.944Z,59.00
2018-07-07T07:23:02.169Z,58.70
2018-07-07T07:25:30.470Z,58.50
2018-07-07T07:27:58.688Z,58.50
2018-07-07T07:30:26.896Z,58.20
2018-07-07T07:32:55.136Z,57.80
2018-07-07T07:35:23.339Z,57.20
2018-07-07T07:37:51.627Z,56.70
2018-07-07T07:40:19.820Z,56.50
2018-07-07T07:42:48.057Z,56.50
2018-07-07T07:45:16.261Z,56.50
2018-07-07T07:47:44.582Z,56.30
2018-07-07T07:50:12.825Z,56.10
2018-07-07T07:52:41.060Z,55.90
2018-07-07T07:55:09.268Z,55.80
2018-07-07T07:57:37.501Z,55.40
2018-07-07T08:00:05.716Z,55.20
2018-07-07T08:02:33.982Z,55.00
2018-07-07T08:05:02.234Z,55.00
2018-07-07T08:07:30.676Z,54.80
2018-07-07T08:09:59.380Z,54.50
2018-07-07T08:12:27.597Z,54.00
2018-07-07T08:14:55.873Z,53.50
2018-07-07T08:17:24.095Z,53.20
2018-07-07T08:19:52.345Z,52.80
2018-07-07T08:22:20.569Z,52.50
2018-07-07T08:24:48.843Z,52.10
2018-07-07T08:27:17.090Z,51.80
2018-07-07T08:29:45.325Z,51.50
2018-07-07T08:32:13.537Z,51.00
2018-07-07T08:34:42.392Z,50.70
2018-07-07T08:37:11.606Z,50.40
2018-07-07T08:39:39.903Z,50.10
2018-07-07T08:42:08.495Z,49.90
2018-07-07T08:44:36.677Z,49.60
2018-07-07T08:47:05.152Z,49.60
2018-07-07T08:49:33.393Z,49.40
2018-07-07T08:52:01.633Z,49.10
2018-07-07T08:54:29.844Z,49.20
2018-07-07T08:56:58.113Z,49.10
2018-07-07T08:59:26.311Z,49.40
2018-07-07T09:04:23.209Z,48.50
2018-07-07T09:06:51.449Z,48.30
2018-07-07T09:09:19.703Z,48.30
2018-07-07T09:11:47.965Z,48.10
2018-07-07T09:14:16.183Z,48.00
2018-07-07T09:16:44.555Z,47.90
2018-07-07T09:19:12.806Z,47.60
2018-07-07T09:21:41.008Z,47.40
2018-07-07T09:24:09.300Z,47.50
2018-07-07T09:26:37.542Z,47.30
2018-07-07T09:29:05.833Z,47.30
2018-07-07T09:31:34.103Z,47.20
2018-07-07T09:34:02.327Z,46.70
2018-07-07T09:36:30.769Z,46.40
2018-07-07T09:38:59.008Z,46.30
2018-07-07T09:41:27.300Z,45.90
2018-07-07T09:43:55.513Z,45.80
2018-07-07T09:46:23.761Z,45.60
2018-07-07T09:48:51.975Z,45.50
2018-07-07T09:51:20.252Z,45.50
2018-07-07T09:53:48.492Z,45.30
2018-07-07T09:56:16.732Z,45.30
2018-07-07T09:58:44.989Z,45.10
2018-07-07T10:01:13.217Z,44.70
2018-07-07T10:03:41.453Z,44.60
2018-07-07T10:06:09.728Z,44.50
2018-07-07T10:08:38.007Z,44.60
2018-07-07T10:11:06.263Z,44.60
2018-07-07T10:13:34.790Z,44.50
2018-07-07T10:16:02.985Z,44.40
2018-07-07T10:18:31.763Z,44.20
2018-07-07T10:21:00.065Z,44.30
2018-07-07T10:23:28.391Z,44.20
2018-07-07T10:25:56.619Z,44.20
2018-07-07T10:28:24.837Z,44.30
2018-07-07T10:30:53.069Z,44.20
2018-07-07T10:33:21.354Z,44.20
2018-07-07T10:35:49.561Z,44.20
2018-07-07T10:38:17.891Z,44.20
2018-07-07T10:40:46.033Z,44.30
2018-07-07T10:43:14.276Z,44.50
2018-07-07T10:45:42.604Z,44.60
2018-07-07T10:48:10.715Z,44.60
2018-07-07T10:50:38.952Z,44.60
2018-07-07T10:53:07.248Z,44.60
2018-07-07T10:55:35.468Z,44.50
2018-07-07T10:58:03.660Z,44.60
2018-07-07T11:00:31.885Z,44.50
2018-07-07T11:03:00.100Z,44.30
2018-07-07T11:05:28.346Z,44.10
2018-07-07T11:07:56.597Z,44.10
2018-07-07T11:10:24.820Z,43.90
2018-07-07T11:12:53.032Z,43.90
2018-07-07T11:15:21.302Z,43.80
2018-07-07T11:17:49.525Z,43.90
2018-07-07T11:20:17.796Z,43.70
2018-07-07T11:22:46.044Z,43.50
2018-07-07T11:25:14.280Z,43.30
2018-07-07T11:27:42.510Z,43.00
2018-07-07T11:30:10.989Z,42.60
2018-07-07T11:32:39.257Z,42.40
2018-07-07T11:35:07.480Z,42.20
2018-07-07T11:37:35.713Z,42.20
2018-07-07T11:40:04.276Z,42.20
2018-07-07T11:42:32.517Z,42.20
2018-07-07T11:47:28.749Z,42.20
2018-07-07T11:49:56.976Z,42.10
2018-07-07T11:52:25.613Z,42.10
2018-07-07T11:54:53.855Z,42.10
2018-07-07T11:57:22.186Z,42.10
2018-07-07T11:59:50.361Z,42.10
2018-07-07T12:02:18.884Z,42.10
2018-07-07T12:04:47.218Z,41.80
2018-07-07T12:07:15.415Z,41.70
2018-07-07T12:09:43.644Z,41.60
2018-07-07T12:12:11.889Z,41.70
2018-07-07T12:14:40.093Z,41.80
2018-07-07T12:17:08.345Z,41.80
2018-07-07T12:19:36.592Z,42.00
2018-07-07T12:22:04.870Z,41.90
2018-07-07T12:24:33.069Z,41.60
2018-07-07T12:27:01.289Z,41.40
2018-07-07T12:29:29.652Z,41.50
2018-07-07T12:31:58.647Z,41.40
2018-07-07T12:34:26.959Z,41.40
2018-07-07T12:36:56.013Z,41.60
2018-07-07T12:39:24.248Z,41.70
2018-07-07T12:41:52.480Z,41.60
2018-07-07T12:44:20.702Z,41.30
2018-07-07T12:46:48.976Z,41.30
2018-07-07T12:49:17.189Z,41.30
2018-07-07T12:51:45.445Z,41.30
2018-07-07T12:54:14.196Z,41.30
2018-07-07T12:56:42.445Z,41.20
2018-07-07T12:59:10.688Z,41.00
2018-07-07T13:01:38.922Z,40.80
2018-07-07T13:04:07.152Z,40.50
2018-07-07T13:06:35.354Z,40.30
2018-07-07T13:09:04.629Z,40.80
2018-07-07T13:11:32.868Z,40.00
2018-07-07T13:14:01.096Z,39.70
2018-07-07T13:16:29.333Z,39.70
2018-07-07T13:18:57.565Z,39.60
2018-07-07T13:21:25.793Z,39.80
2018-07-07T13:23:54.091Z,39.00
2018-07-07T13:26:22.375Z,39.00
2018-07-07T13:28:50.579Z,39.00
2018-07-07T13:31:18.788Z,38.90
2018-07-07T13:33:46.988Z,38.70
2018-07-07T13:36:15.269Z,38.60
2018-07-07T13:38:43.507Z,38.40
2018-07-07T13:41:11.737Z,38.30
2018-07-07T13:43:40.328Z,38.20
2018-07-07T13:46:08.693Z,38.10
2018-07-07T13:48:36.958Z,38.10
2018-07-07T13:51:05.201Z,38.20
2018-07-07T13:53:33.451Z,38.20
2018-07-07T13:56:02.001Z,38.10
2018-07-07T13:58:30.221Z,38.60
2018-07-07T14:00:59.105Z,37.90
2018-07-07T14:03:27.673Z,37.90
2018-07-07T14:05:55.909Z,38.00
2018-07-07T14:08:24.143Z,38.00
2018-07-07T14:10:52.468Z,37.80
2018-07-07T14:13:20.763Z,37.60
2018-07-07T14:15:49.042Z,37.50
2018-07-07T14:18:17.273Z,37.60
2018-07-07T14:20:45.500Z,37.60
2018-07-07T14:23:13.712Z,37.60
2018-07-07T14:25:41.993Z,37.80
2018-07-07T14:28:10.219Z,37.80
2018-07-07T14:30:38.419Z,37.70
2018-07-07T14:33:06.656Z,37.70
2018-07-07T14:35:34.861Z,37.80
2018-07-07T14:38:03.101Z,37.90
2018-07-07T14:40:31.308Z,37.80
2018-07-07T14:42:59.528Z,37.70
2018-07-07T14:45:28.896Z,37.00
2018-07-07T14:47:58.243Z,36.30
2018-07-07T14:50:26.717Z,35.40
2018-07-07T14:52:54.960Z,34.50
2018-07-07T14:55:24.504Z,34.60
2018-07-07T15:00:23.010Z,35.20
2018-07-07T15:02:52.305Z,34.90
2018-07-07T15:05:20.554Z,35.00
2018-07-07T15:07:49.174Z,35.30
2018-07-07T15:10:17.592Z,35.50
2018-07-07T15:12:46.752Z,35.90
2018-07-07T15:15:15.208Z,36.10
2018-07-07T15:20:12.354Z,36.10
2018-07-07T15:22:40.608Z,36.20
2018-07-07T15:25:09.137Z,36.50
2018-07-07T15:27:37.446Z,36.50
2018-07-07T15:30:06.739Z,36.60
2018-07-07T15:32:34.953Z,36.50
2018-07-07T15:35:03.177Z,36.50
2018-07-07T15:39:59.399Z,36.60
2018-07-07T15:42:27.616Z,36.70
2018-07-07T15:44:55.836Z,36.70
2018-07-07T15:47:24.048Z,36.70
2018-07-07T15:49:52.285Z,36.70
2018-07-07T15:52:21.742Z,36.30
2018-07-07T15:54:49.953Z,36.00
2018-07-07T15:57:18.222Z,35.90
2018-07-07T15:59:46.407Z,35.80
2018-07-07T16:02:14.819Z,35.50
2018-07-07T16:04:43.073Z,35.30
2018-07-07T16:07:11.276Z,35.50
2018-07-07T16:09:39.481Z,35.50
2018-07-07T16:12:07.709Z,35.50
2018-07-07T16:14:35.962Z,35.20
2018-07-07T16:17:04.337Z,35.20
2018-07-07T16:19:32.599Z,35.20
2018-07-07T16:22:00.866Z,35.30
2018-07-07T16:24:29.056Z,35.30
2018-07-07T16:26:57.340Z,35.30
2018-07-07T16:29:25.548Z,35.30
2018-07-07T16:31:53.785Z,35.50
2018-07-07T16:34:21.980Z,35.80
2018-07-07T16:36:50.212Z,35.90
2018-07-07T16:39:18.425Z,35.80
2018-07-07T16:41:46.660Z,35.70
2018-07-07T16:44:14.882Z,35.80
2018-07-07T16:46:43.120Z,35.80
2018-07-07T16:49:11.540Z,35.80
2018-07-07T16:51:39.817Z,35.70
2018-07-07T16:54:08.049Z,35.70
2018-07-07T16:56:36.284Z,35.90
2018-07-07T16:59:04.536Z,36.00
2018-07-07T17:01:33.029Z,36.10
2018-07-07T17:04:01.317Z,36.10
2018-07-07T17:06:29.556Z,36.20
2018-07-07T17:08:57.872Z,36.40
2018-07-07T17:13:54.076Z,36.50
2018-07-07T17:16:22.285Z,36.50
2018-07-07T17:18:51.588Z,36.70
2018-07-07T17:21:19.978Z,36.80
2018-07-07T17:23:48.201Z,36.70
2018-07-07T17:26:16.714Z,36.60
2018-07-07T17:28:45.161Z,36.60
2018-07-07T17:31:13.389Z,36.50
2018-07-07T17:33:41.760Z,36.70
2018-07-07T17:36:10.133Z,36.90
2018-07-07T17:38:38.601Z,36.90
2018-07-07T17:41:06.896Z,37.00
2018-07-07T17:43:35.166Z,37.30
2018-07-07T17:48:31.377Z,37.30
2018-07-07T17:50:59.625Z,37.40
2018-07-07T17:53:27.908Z,37.70
2018-07-07T17:55:56.437Z,37.70
2018-07-07T17:58:24.759Z,37.60
2018-07-07T18:00:53.208Z,37.50
2018-07-07T18:03:21.704Z,37.30
2018-07-07T18:05:49.925Z,37.40
2018-07-07T18:08:18.158Z,37.70
2018-07-07T18:10:46.365Z,37.90
2018-07-07T18:13:14.580Z,37.80
2018-07-07T18:15:42.809Z,37.70
2018-07-07T18:18:11.064Z,37.80
2018-07-07T18:20:39.288Z,37.70
2018-07-07T18:23:07.521Z,37.70
2018-07-07T18:25:35.734Z,37.70
2018-07-07T18:28:04.316Z,38.00
2018-07-07T18:30:32.568Z,38.10
2018-07-07T18:33:00.776Z,38.40
2018-07-07T18:35:29.009Z,38.60
2018-07-07T18:37:57.263Z,38.60
2018-07-07T18:40:25.470Z,38.60
2018-07-07T18:42:53.713Z,38.80
2018-07-07T18:45:21.925Z,38.80
2018-07-07T18:47:50.209Z,38.80
2018-07-07T18:50:18.380Z,38.80
2018-07-07T18:52:46.663Z,38.90
2018-07-07T18:55:14.818Z,39.00
2018-07-07T18:57:43.029Z,39.00
2018-07-07T19:00:11.257Z,39.10
2018-07-07T19:02:39.468Z,39.30
2018-07-07T19:05:07.701Z,39.50
2018-07-07T19:07:36.018Z,39.50
2018-07-07T19:10:04.191Z,39.70
2018-07-07T19:12:32.416Z,39.80
2018-07-07T19:15:05.884Z,40.00
2018-07-07T19:17:34.101Z,40.10
2018-07-07T19:20:02.396Z,40.20
2018-07-07T19:22:35.860Z,40.30
2018-07-07T19:25:09.520Z,40.40
2018-07-07T19:27:37.725Z,40.50
2018-07-07T19:30:05.977Z,40.50
2018-07-07T19:32:39.820Z,40.60
2018-07-07T19:35:13.409Z,40.70
2018-07-07T19:37:41.631Z,40.80
2018-07-07T19:40:09.895Z,40.80
2018-07-07T19:42:38.317Z,41.00
2018-07-07T19:45:06.623Z,41.00
2018-07-07T19:47:35.313Z,41.30
2018-07-07T19:50:03.557Z,41.70
2018-07-07T19:52:31.784Z,41.90
2018-07-07T19:54:59.997Z,42.20
2018-07-07T19:57:28.221Z,42.50
2018-07-07T19:59:56.433Z,42.80
2018-07-07T20:02:24.793Z,43.10
2018-07-07T20:04:53.054Z,43.40
2018-07-07T20:07:21.282Z,43.60
2018-07-07T20:09:49.503Z,43.90
2018-07-07T20:12:17.690Z,44.30
2018-07-07T20:14:45.941Z,44.60
2018-07-07T20:17:15.049Z,44.90
2018-07-07T20:20:59.250Z,45.10
2018-07-07T20:23:28.669Z,45.20
2018-07-07T20:26:00.916Z,45.20
2018-07-07T20:28:34.484Z,45.20
2018-07-07T20:31:03.221Z,45.40
2018-07-07T20:33:31.420Z,45.90
2018-07-07T20:35:59.665Z,46.40
2018-07-07T20:38:27.921Z,46.80
2018-07-07T20:40:56.137Z,47.00
2018-07-07T20:43:24.344Z,47.20
2018-07-07T20:45:52.559Z,47.20
2018-07-07T20:48:20.790Z,47.20
2018-07-07T20:50:49.008Z,47.20
2018-07-07T20:53:17.246Z,47.30
2018-07-07T20:55:46.541Z,47.30
2018-07-07T20:58:14.751Z,47.50
2018-07-07T21:00:42.975Z,47.60
2018-07-07T21:03:11.196Z,47.70
2018-07-07T21:05:39.406Z,48.20
2018-07-07T21:08:07.617Z,47.80
2018-07-07T21:10:35.837Z,48.00
2018-07-07T21:13:04.052Z,48.10
2018-07-07T21:15:32.288Z,48.00
2018-07-07T21:18:00.521Z,48.00
2018-07-07T21:20:29.249Z,48.10
2018-07-07T21:22:57.461Z,48.10
2018-07-07T21:25:25.691Z,48.10
2018-07-07T21:27:54.719Z,48.10
2018-07-07T21:30:23.152Z,48.10
2018-07-07T21:32:51.364Z,48.10
2018-07-07T21:35:19.590Z,48.20
2018-07-07T21:37:47.793Z,48.30
2018-07-07T21:40:17.076Z,48.50
2018-07-07T21:42:45.284Z,48.60
2018-07-07T21:45:13.496Z,48.90
2018-07-07T21:47:41.718Z,49.30
2018-07-07T21:50:09.940Z,49.50
2018-07-07T21:52:38.192Z,49.80
2018-07-07T21:55:06.464Z,49.90
2018-07-07T21:57:39.924Z,50.00
2018-07-07T22:00:08.208Z,50.00
2018-07-07T22:02:41.663Z,50.00
2018-07-07T22:05:15.289Z,49.90
2018-07-07T22:07:43.521Z,49.70
2018-07-07T22:10:11.760Z,49.70
2018-07-07T22:12:39.982Z,49.60
2018-07-07T22:15:08.206Z,49.60
2018-07-07T22:17:36.421Z,49.70
2018-07-07T22:20:04.656Z,49.80
2018-07-07T22:22:32.856Z,49.90
2018-07-07T22:25:01.118Z,49.90
2018-07-07T22:27:29.308Z,49.90
2018-07-07T22:29:57.528Z,49.80
2018-07-07T22:32:25.757Z,50.00
2018-07-07T22:34:54.000Z,50.00
2018-07-07T22:37:22.296Z,50.10
2018-07-07T22:39:50.501Z,50.60
2018-07-07T22:42:20.324Z,50.10
2018-07-07T22:44:49.205Z,50.10
2018-07-07T22:47:17.491Z,50.20
2018-07-07T22:49:45.992Z,50.20
2018-07-07T22:52:14.368Z,50.20
2018-07-07T22:54:42.676Z,50.30
2018-07-07T22:57:10.925Z,50.30
2018-07-07T22:59:39.279Z,50.40
2018-07-07T23:02:07.550Z,50.50
2018-07-07T23:04:35.810Z,50.40
2018-07-07T23:07:04.085Z,50.60
2018-07-07T23:09:32.325Z,50.70
2018-07-07T23:12:00.557Z,51.40
2018-07-07T23:14:28.883Z,50.80
2018-07-07T23:17:00.192Z,51.00
2018-07-07T23:19:28.622Z,51.00
2018-07-07T23:21:57.421Z,51.10
2018-07-07T23:24:25.685Z,51.10
2018-07-07T23:26:53.899Z,51.20
2018-07-07T23:29:22.131Z,51.10
2018-07-07T23:31:50.379Z,51.20
2018-07-07T23:34:18.612Z,51.10
2018-07-07T23:36:46.829Z,51.20
2018-07-07T23:39:15.071Z,51.20
2018-07-07T23:41:43.325Z,51.90
2018-07-07T23:44:11.599Z,51.50
2018-07-07T23:46:39.817Z,51.80
2018-07-07T23:49:08.105Z,51.80
2018-07-07T23:51:36.301Z,52.00
2018-07-07T23:54:04.581Z,52.10
2018-07-07T23:56:32.811Z,52.20
2018-07-07T23:59:01.056Z,52.80
